Time;durP1;ratioP1;P1;durP2;ratioP2;P2;SDS_P1;SDS_P2;PMS_P1;PMS_P2;Temp;Humidity;BMP_temperature;BMP_pressure;BME280_temperature;BME280_humidity;BME280_pressure;Samples;Min_cycle;Max_cycle;Signal;HPM_P1;HPM_P2
2021/03/15 00:00:22;;;;;;;35.33;22.15;;;;;;;10.32;54.56;99943.55;1813539;78;21213;-77
2021/03/15 00:02:51;;;;;;;33.10;21.33;;;;;;;10.36;54.45;99940.86;1816251;78;21164;-76
2021/03/15 00:05:19;;;;;;;37.40;24.18;;;;;;;10.40;54.25;99940.86;1801784;78;21129;-77
2021/03/15 00:07:48;;;;;;;32.70;20.27;;;;;;;10.39;54.03;99934.31;1807035;78;21166;-79
2021/03/15 00:10:17;;;;;;;29.07;18.32;;;;;;;10.35;54.11;99931.64;1819326;78;21191;-77
2021/03/15 00:12:45;;;;;;;31.27;20.70;;;;;;;10.33;54.06;99932.33;1825329;78;21131;-77
2021/03/15 00:15:17;;;;;;;35.88;23.47;;;;;;;10.29;54.10;99929.66;1825420;78;21143;-77
2021/03/15 00:17:44;;;;;;;39.38;25.62;;;;;;;10.30;54.18;99935.33;1825590;78;21131;-79
2021/03/15 00:20:15;;;;;;;34.53;22.37;;;;;;;10.29;54.08;99935.01;1825512;78;21500;-79
2021/03/15 00:22:43;;;;;;;34.15;21.60;;;;;;;10.29;54.09;99935.01;1825503;78;21630;-76
2021/03/15 00:25:11;;;;;;;36.25;22.82;;;;;;;10.28;54.04;99935.52;1825916;78;21128;-76
2021/03/15 00:27:39;;;;;;;34.83;20.45;;;;;;;10.25;54.08;99930.99;1825676;78;21123;-79
2021/03/15 00:30:09;;;;;;;33.28;22.13;;;;;;;10.26;54.09;99928.13;1825305;78;21642;-77
2021/03/15 00:32:36;;;;;;;34.73;23.02;;;;;;;10.26;54.01;99928.64;1824809;78;21116;-76
2021/03/15 00:35:08;;;;;;;34.05;22.00;;;;;;;10.26;53.99;99920.61;1825451;78;21068;-80
2021/03/15 00:37:36;;;;;;;34.75;22.87;;;;;;;10.30;53.96;99919.27;1825814;78;21175;-78
2021/03/15 00:40:06;;;;;;;32.00;20.75;;;;;;;10.31;53.88;99924.95;1825938;78;21053;-79
2021/03/15 00:42:34;;;;;;;35.43;22.77;;;;;;;10.31;53.78;99920.94;1825884;78;21076;-80
2021/03/15 00:45:01;;;;;;;32.20;21.95;;;;;;;10.30;53.81;99917.94;1825767;78;21160;-83
2021/03/15 00:47:29;;;;;;;31.97;21.10;;;;;;;10.32;53.77;99914.09;1825798;78;21583;-83
2021/03/15 00:49:56;;;;;;;37.83;23.67;;;;;;;10.34;53.75;99920.61;1825923;78;21045;-79
2021/03/15 00:52:26;;;;;;;35.52;23.38;;;;;;;10.32;53.74;99916.77;1825893;78;21072;-78
2021/03/15 00:54:53;;;;;;;39.90;23.87;;;;;;;10.31;53.72;99914.24;1825829;78;21072;-79
2021/03/15 00:57:22;;;;;;;35.90;22.30;;;;;;;10.30;53.64;99905.38;1821222;78;21181;-78
2021/03/15 00:59:52;;;;;;;35.17;23.02;;;;;;;10.31;53.63;99898.19;1811649;78;21498;-80
2021/03/15 01:02:19;;;;;;;35.33;23.07;;;;;;;10.31;53.62;99898.19;1778633;79;21601;-81
2021/03/15 01:04:47;;;;;;;33.40;22.35;;;;;;;10.33;53.62;99901.03;1784545;78;21609;-79
2021/03/15 01:07:19;;;;;;;34.10;22.27;;;;;;;10.36;53.48;99899.88;1804660;77;21220;-76
2021/03/15 01:09:46;;;;;;;33.20;22.40;;;;;;;10.37;53.46;99897.52;1828965;78;21093;-77
2021/03/15 01:12:15;;;;;;;36.15;23.77;;;;;;;10.37;53.37;99893.00;1819601;78;21116;-76
2021/03/15 01:14:44;;;;;;;36.98;22.15;;;;;;;10.39;53.36;99895.49;1826297;78;21106;-80
2021/03/15 01:17:13;;;;;;;27.30;19.00;;;;;;;10.40;53.27;99895.34;1801511;78;21149;-76
2021/03/15 01:19:42;;;;;;;29.50;20.05;;;;;;;10.44;53.22;99901.17;1829944;78;21520;-77
2021/03/15 01:22:11;;;;;;;35.92;24.12;;;;;;;10.43;53.20;99898.67;1826912;78;21564;-75
2021/03/15 01:24:38;;;;;;;34.00;22.93;;;;;;;10.44;53.25;99900.34;1833386;78;21196;-76
2021/03/15 01:27:06;;;;;;;37.15;23.77;;;;;;;10.42;53.17;99891.15;1800461;79;21472;-77
2021/03/15 01:29:33;;;;;;;38.38;25.00;;;;;;;10.43;53.17;99890.64;1834079;78;21161;-78
2021/03/15 01:32:00;;;;;;;33.58;22.62;;;;;;;10.40;53.17;99889.13;1834086;78;21121;-78
2021/03/15 01:34:28;;;;;;;37.55;25.92;;;;;;;10.40;53.18;99891.80;1834392;78;21583;-79
2021/03/15 01:36:57;;;;;;;46.28;29.55;;;;;;;10.40;53.20;99893.14;1832879;78;21085;-81
2021/03/15 01:39:24;;;;;;;39.33;27.13;;;;;;;10.40;53.19;99887.31;1834490;78;21089;-80
2021/03/15 01:41:51;;;;;;;44.27;29.02;;;;;;;10.44;53.18;99891.80;1834373;78;21599;-78
2021/03/15 01:44:18;;;;;;;;;;;;;;;10.45;53.13;99880.61;1804668;79;21125;-81
2021/03/15 01:46:45;;;;;;;36.13;23.70;;;;;;;10.46;53.08;99884.95;1834534;78;20473;-77
2021/03/15 01:49:12;;;;;;;36.77;24.30;;;;;;;10.45;53.08;99881.44;1801936;79;21065;-78
2021/03/15 01:51:40;;;;;;;32.95;21.07;;;;;;;10.44;53.04;99882.42;1834381;78;21579;-81
2021/03/15 01:54:08;;;;;;;36.00;23.70;;;;;;;10.40;53.04;99878.42;1801803;79;21182;-81
2021/03/15 01:56:38;;;;;;;38.15;24.57;;;;;;;10.33;53.13;99872.92;1834442;78;21065;-79
2021/03/15 01:59:05;;;;;;;37.35;24.82;;;;;;;10.31;53.22;99879.45;1782405;79;21076;-79
2021/03/15 02:01:32;;;;;;;36.48;24.50;;;;;;;10.28;53.27;99872.61;1834843;78;21054;-78
2021/03/15 02:04:00;;;;;;;39.85;25.48;;;;;;;10.27;53.27;99870.11;1834575;78;21133;-77
2021/03/15 02:06:27;;;;;;;45.80;28.15;;;;;;;10.24;53.33;99869.07;1782127;79;21137;-79
2021/03/15 02:08:56;;;;;;;79.40;39.60;;;;;;;10.21;53.39;99870.73;1833997;77;21575;-79
2021/03/15 02:11:29;;;;;;;;;;;;;;;10.18;53.47;99866.58;1835849;78;21077;-78
2021/03/15 02:14:02;;;;;;;103.00;48.63;;;;;;;10.18;53.53;99859.89;1818671;78;20226;-78
2021/03/15 02:16:59;;;;;;;81.35;43.30;;;;;;;10.18;53.58;99864.41;1813092;78;21156;-80
2021/03/15 02:19:50;;;;;;;78.70;38.37;;;;;;;10.14;53.62;99868.75;1827900;78;21160;-76
2021/03/15 02:22:47;;;;;;;62.03;32.73;;;;;;;10.14;53.65;99868.75;1825588;78;21300;-79
2021/03/15 02:26:01;;;;;;;64.62;34.65;;;;;;;10.14;53.65;99869.27;1827593;78;21188;-76
2021/03/15 02:28:46;;;;;;;48.02;28.35;;;;;;;10.10;53.71;99868.76;1821460;78;21113;-78
2021/03/15 02:31:55;;;;;;;52.05;32.35;;;;;;;10.12;53.71;99868.07;1805260;78;21049;-76
2021/03/15 02:34:53;;;;;;;44.95;28.67;;;;;;;10.14;53.66;99882.14;1828538;78;21112;-76
2021/03/15 02:37:25;;;;;;;44.18;27.02;;;;;;;10.11;53.71;99875.77;1809897;78;27167;-78
2021/03/15 02:39:55;;;;;;;34.78;23.40;;;;;;;10.14;53.75;99880.80;1812478;78;21073;-78
2021/03/15 02:42:22;;;;;;;38.63;26.40;;;;;;;10.16;53.71;99877.44;1812148;78;21529;-79
2021/03/15 02:44:52;;;;;;;30.97;20.80;;;;;;;10.12;53.75;99870.75;1825852;78;21153;-79
2021/03/15 02:47:26;;;;;;;42.17;27.65;;;;;;;10.18;53.75;99876.45;1795770;78;21140;-78
2021/03/15 02:50:01;;;;;;;45.28;28.32;;;;;;;10.15;53.69;99882.97;1804203;78;21055;-78
2021/03/15 02:52:29;;;;;;;39.55;25.15;;;;;;;10.12;53.76;99882.79;1808606;78;21176;-77
2021/03/15 02:54:56;;;;;;;37.13;24.27;;;;;;;10.10;53.79;99891.50;1833608;78;21062;-81
2021/03/15 02:57:23;;;;;;;41.00;25.27;;;;;;;10.08;53.82;99886.84;1826864;78;21121;-76
2021/03/15 02:59:52;;;;;;;39.20;25.75;;;;;;;10.06;53.85;99890.17;1801587;78;21319;-77
2021/03/15 03:02:19;;;;;;;49.98;29.37;;;;;;;9.98;53.96;99891.50;1795270;78;21144;-79
2021/03/15 03:04:48;;;;;;;41.20;27.22;;;;;;;9.94;54.15;99888.83;1805543;78;21603;-79
2021/03/15 03:07:16;;;;;;;38.05;24.72;;;;;;;9.96;54.23;99891.36;1826046;78;21145;-78
2021/03/15 03:09:44;;;;;;;35.25;23.22;;;;;;;9.99;54.22;99891.86;1826561;78;21101;-76
2021/03/15 03:12:12;;;;;;;34.10;23.57;;;;;;;10.03;54.25;99889.66;1787098;78;21545;-77
2021/03/15 03:14:40;;;;;;;34.40;23.60;;;;;;;10.01;54.29;99899.20;1808287;78;21113;-76
2021/03/15 03:17:09;;;;;;;37.33;24.27;;;;;;;10.01;54.38;99896.53;1794788;78;21196;-78
2021/03/15 03:19:37;;;;;;;39.75;25.35;;;;;;;10.05;54.49;99897.87;1811134;78;21478;-76
2021/03/15 03:22:05;;;;;;;36.17;22.67;;;;;;;10.07;54.46;99891.83;1812099;78;21117;-76
2021/03/15 03:24:32;;;;;;;33.00;21.60;;;;;;;10.09;54.51;99892.52;1825897;78;21134;-78
2021/03/15 03:26:59;;;;;;;;;;;;;;;10.10;54.56;99890.16;1833749;78;21135;-76
2021/03/15 03:29:26;;;;;;;34.40;21.42;;;;;;;10.11;54.67;99890.48;1825825;78;20239;-77
2021/03/15 03:31:53;;;;;;;39.45;24.47;;;;;;;10.16;54.78;99888.14;1810554;78;21118;-76
2021/03/15 03:34:20;;;;;;;34.58;24.07;;;;;;;10.18;54.83;99895.19;1806893;78;21121;-75
2021/03/15 03:36:47;;;;;;;34.50;21.48;;;;;;;10.15;54.94;99895.84;1808183;78;21128;-79
2021/03/15 03:39:14;;;;;;;;;;;;;;;10.12;55.05;99900.19;1761922;78;21491;-79
2021/03/15 03:41:43;;;;;;;36.77;22.00;;;;;;;10.08;55.22;99896.20;1811692;78;20487;-76
2021/03/15 03:44:11;;;;;;;38.75;22.90;;;;;;;10.11;55.30;99903.04;1855560;76;21544;-79
2021/03/15 03:46:41;;;;;;;37.73;23.52;;;;;;;10.13;55.40;99899.20;1810661;78;21568;-78
2021/03/15 03:49:09;;;;;;;41.18;24.65;;;;;;;10.12;55.52;99896.67;1811849;78;21613;-77
2021/03/15 03:51:53;;;;;;;39.90;24.47;;;;;;;10.14;55.63;99888.83;1795830;78;21496;-77
2021/03/15 03:54:45;;;;;;;43.63;25.82;;;;;;;10.24;55.52;99902.53;1825997;78;21204;-77
2021/03/15 03:57:15;;;;;;;39.85;24.67;;;;;;;10.29;55.43;99894.85;1826807;78;21492;-77
2021/03/15 03:59:46;;;;;;;38.45;24.90;;;;;;;10.34;55.41;99897.34;1812710;78;21176;-77
2021/03/15 04:02:14;;;;;;;41.42;26.80;;;;;;;10.40;55.37;99898.50;1829639;78;21101;-76
2021/03/15 04:04:45;;;;;;;37.85;23.87;;;;;;;10.42;55.30;99895.16;1796927;78;21186;-78
2021/03/15 04:07:12;;;;;;;38.67;24.07;;;;;;;10.41;55.31;99895.67;1824044;78;21645;-79
2021/03/15 04:09:41;;;;;;;38.95;23.80;;;;;;;10.40;55.32;99897.16;1795539;78;21129;-78
2021/03/15 04:12:12;;;;;;;39.88;23.77;;;;;;;10.41;55.35;99902.87;1820027;78;21184;-80
2021/03/15 04:14:46;;;;;;;41.48;25.37;;;;;;;10.43;55.35;99906.70;1824676;78;21180;-75
2021/03/15 04:17:20;;;;;;;40.45;25.45;;;;;;;10.45;55.36;99908.73;1811929;78;21038;-77
2021/03/15 04:19:52;;;;;;;40.55;27.30;;;;;;;10.49;55.37;99906.02;1827910;78;21184;-75
2021/03/15 04:22:25;;;;;;;40.45;24.82;;;;;;;10.53;55.32;99906.83;1828728;78;21585;-76
2021/03/15 04:24:53;;;;;;;47.50;29.40;;;;;;;10.59;55.24;99900.81;1802936;78;21160;-80
2021/03/15 04:27:20;;;;;;;50.15;29.40;;;;;;;10.63;55.09;99902.66;1782288;78;21200;-77
2021/03/15 04:29:47;;;;;;;;;;;;;;;10.68;54.67;99907.49;1809172;78;21639;-75
2021/03/15 04:32:14;;;;;;;40.90;26.62;;;;;;;10.70;54.29;99906.80;1811792;78;20286;-79
2021/03/15 04:34:42;;;;;;;40.70;26.12;;;;;;;10.70;54.13;99900.94;1818530;78;21177;-76
2021/03/15 04:37:09;;;;;;;41.58;27.20;;;;;;;10.71;53.91;99895.08;1813490;79;21212;-76
2021/03/15 04:39:36;;;;;;;41.15;25.37;;;;;;;10.71;53.46;99896.41;1795684;78;21161;-75
2021/03/15 04:42:04;;;;;;;;;;;;;;;10.71;53.11;99900.43;1821377;78;21180;-78
2021/03/15 04:44:34;;;;;;;36.83;23.20;;;;;;;10.69;53.00;99904.63;1818277;78;20271;-76
2021/03/15 04:47:01;;;;;;;31.37;20.40;;;;;;;10.63;52.58;99902.14;1813793;78;21176;-77
2021/03/15 04:49:31;;;;;;;29.30;19.25;;;;;;;10.56;52.19;99896.30;1823714;78;21177;-76
2021/03/15 04:52:02;;;;;;;31.17;21.20;;;;;;;10.50;52.08;99904.52;1806937;78;21179;-75
2021/03/15 04:54:31;;;;;;;36.90;22.52;;;;;;;10.46;52.24;99907.20;1817828;78;21212;-75
2021/03/15 04:56:59;;;;;;;41.25;26.20;;;;;;;10.43;52.40;99904.86;1830653;76;21245;-75
2021/03/15 04:59:28;;;;;;;42.08;26.35;;;;;;;10.44;52.77;99902.51;1822535;76;21178;-79
2021/03/15 05:01:55;;;;;;;53.68;29.87;;;;;;;10.46;52.78;99899.68;1826868;76;21182;-77
2021/03/15 05:04:22;;;;;;;;;;;;;;;10.47;52.77;99902.68;1838568;76;21158;-78
2021/03/15 05:06:50;;;;;;;51.80;28.80;;;;;;;10.48;53.26;99903.84;1823081;76;20298;-73
2021/03/15 05:09:17;;;;;;;67.03;34.13;;;;;;;10.47;53.83;99900.84;1796831;76;21189;-77
2021/03/15 05:11:44;;;;;;;46.28;27.13;;;;;;;10.43;54.27;99904.86;1818210;78;21173;-80
2021/03/15 05:14:11;;;;;;;53.92;30.95;;;;;;;10.43;54.65;99904.86;1791202;78;21216;-75
2021/03/15 05:16:41;;;;;;;53.55;29.55;;;;;;;10.41;54.91;99905.55;1794714;78;21180;-77
2021/03/15 05:19:10;;;;;;;56.70;32.13;;;;;;;10.45;55.10;99904.20;1822993;78;21127;-78
2021/03/15 05:21:39;;;;;;;63.42;34.10;;;;;;;10.50;55.18;99908.54;1813676;78;21137;-77
2021/03/15 05:24:09;;;;;;;80.65;41.25;;;;;;;10.54;55.22;99909.87;1819245;78;21168;-76
2021/03/15 05:26:39;;;;;;;85.90;44.70;;;;;;;10.60;55.22;99907.83;1822532;77;21085;-77
2021/03/15 05:29:08;;;;;;;80.53;42.67;;;;;;;10.64;55.20;99909.67;1792854;78;21437;-79
2021/03/15 05:31:42;;;;;;;99.65;53.13;;;;;;;10.65;55.20;99905.98;1829255;77;21405;-76
2021/03/15 05:34:10;;;;;;;117.08;59.58;;;;;;;10.69;55.19;99907.81;1793801;78;21147;-80
2021/03/15 05:36:38;;;;;;;147.95;73.12;;;;;;;10.74;55.15;99910.81;1828652;77;21086;-76
2021/03/15 05:39:07;;;;;;;112.65;59.77;;;;;;;10.79;54.93;99909.78;1825299;77;21487;-78
2021/03/15 05:42:01;;;;;;;136.18;65.45;;;;;;;10.84;54.79;99912.77;1836509;77;21409;-77
2021/03/15 05:44:53;;;;;;;109.05;52.13;;;;;;;10.87;54.66;99913.78;1815789;78;21147;-77
2021/03/15 05:47:44;;;;;;;131.85;63.08;;;;;;;10.84;54.66;99912.77;1803120;78;21629;-80
2021/03/15 05:50:52;;;;;;;124.35;62.80;;;;;;;10.82;54.67;99911.63;1840710;76;21703;-78
2021/03/15 05:53:57;;;;;;;109.07;57.25;;;;;;;10.79;54.75;99901.75;1826297;76;21210;-75
2021/03/15 05:56:35;;;;;;;81.97;44.42;;;;;;;10.79;54.79;99902.58;1845343;76;21619;-77
2021/03/15 05:59:17;;;;;;;83.67;41.30;;;;;;;10.86;54.67;99908.92;1844621;76;21506;-75
2021/03/15 06:02:01;;;;;;;85.50;41.55;;;;;;;10.85;54.74;99910.42;1842083;76;21574;-75
2021/03/15 06:05:00;;;;;;;65.42;35.95;;;;;;;10.81;54.87;99922.02;1806432;78;21108;-75
2021/03/15 06:07:29;;;;;;;74.32;37.25;;;;;;;10.80;54.94;99918.14;1837001;76;21089;-76
2021/03/15 06:10:07;;;;;;;62.85;33.55;;;;;;;10.80;54.97;99924.84;1833673;76;21111;-77
2021/03/15 06:12:53;;;;;;;55.40;30.60;;;;;;;10.71;55.14;99926.70;1794723;78;21099;-77
2021/03/15 06:15:29;;;;;;;59.65;31.80;;;;;;;10.64;55.39;99933.27;1837096;77;21124;-78
2021/03/15 06:17:56;;;;;;;52.90;28.52;;;;;;;10.58;55.65;99932.63;1833220;77;21208;-78
2021/03/15 06:20:23;;;;;;;54.53;30.15;;;;;;;10.59;55.80;99930.27;1798816;77;21164;-76
2021/03/15 06:22:53;;;;;;;54.38;30.23;;;;;;;10.63;55.89;99934.28;1797375;78;21180;-77
2021/03/15 06:25:21;;;;;;;69.40;36.45;;;;;;;10.65;55.93;99931.42;1808720;78;21184;-75
2021/03/15 06:27:50;;;;;;;60.28;32.35;;;;;;;10.64;56.03;99931.93;1793260;76;22300;-76
2021/03/15 06:30:19;;;;;;;51.53;28.73;;;;;;;10.61;56.14;99928.25;1835607;75;21196;-76
2021/03/15 06:32:55;;;;;;;89.32;41.55;;;;;;;10.57;56.18;99926.91;1839437;76;21153;-75
2021/03/15 06:35:36;;;;;;;70.15;34.95;;;;;;;10.55;56.37;99923.59;1808067;76;48279;-75
2021/03/15 06:38:03;;;;;;;75.78;38.78;;;;;;;10.57;56.45;99924.74;1804803;75;21132;-75
2021/03/15 06:40:35;;;;;;;70.20;36.77;;;;;;;10.62;56.46;99925.89;1842712;75;21097;-76
2021/03/15 06:43:03;;;;;;;57.15;30.10;;;;;;;10.70;56.37;99925.55;1835100;75;21094;-76
2021/03/15 06:45:31;;;;;;;57.58;29.85;;;;;;;10.75;56.26;99927.20;1804274;77;21121;-77
2021/03/15 06:48:01;;;;;;;44.38;26.30;;;;;;;10.72;56.24;99931.08;1788099;78;21108;-77
2021/03/15 06:50:28;;;;;;;56.58;31.87;;;;;;;10.66;56.34;99932.58;1786887;78;21164;-76
2021/03/15 06:52:58;;;;;;;;;;;;;;;10.59;56.47;99928.94;1790435;78;21128;-75
2021/03/15 06:55:30;;;;;;;54.27;31.57;;;;;;;10.59;56.62;99933.45;1786912;78;20618;-75
2021/03/15 06:57:57;;;;;;;68.40;33.38;;;;;;;10.58;56.69;99925.93;1784342;78;21562;-76
2021/03/15 07:00:29;;;;;;;;;;;;;;;10.62;56.71;99930.41;1806949;77;21575;-77
2021/03/15 07:03:01;;;;;;;59.20;31.27;;;;;;;10.64;56.73;99931.10;1796727;77;20258;-75
2021/03/15 07:05:29;;;;;;;56.37;31.95;;;;;;;10.61;56.79;99929.59;1776037;78;21159;-75
2021/03/15 07:07:59;;;;;;;65.83;36.75;;;;;;;10.59;56.91;99934.29;1792765;77;21112;-75
2021/03/15 07:10:31;;;;;;;61.75;34.00;;;;;;;10.57;57.02;99930.09;1804811;77;21114;-76
2021/03/15 07:13:11;;;;;;;48.73;26.35;;;;;;;10.57;57.10;99928.25;1774327;78;21134;-76
2021/03/15 07:15:43;;;;;;;56.23;29.07;;;;;;;10.59;57.15;99924.91;1803284;77;21118;-74
2021/03/15 07:18:18;;;;;;;52.48;29.57;;;;;;;10.58;57.20;99927.27;1802983;77;21155;-76
2021/03/15 07:20:52;;;;;;;56.33;30.30;;;;;;;10.64;57.18;99922.56;1808401;77;21115;-75
2021/03/15 07:23:41;;;;;;;47.20;27.05;;;;;;;10.75;57.06;99923.19;1806214;77;21593;-74
2021/03/15 07:26:25;;;;;;;47.93;27.85;;;;;;;10.86;56.08;99920.98;1806625;77;21107;-75
2021/03/15 07:28:55;;;;;;;61.63;35.50;;;;;;;10.91;55.14;99925.83;1802326;77;21120;-74
2021/03/15 07:31:29;;;;;;;57.95;33.35;;;;;;;10.91;54.60;99922.64;1773443;77;21111;-76
2021/03/15 07:34:02;;;;;;;50.85;32.15;;;;;;;10.88;54.19;99920.80;1803666;77;21108;-75
2021/03/15 07:36:31;;;;;;;50.95;33.45;;;;;;;10.84;53.87;99918.13;1803183;77;21632;-75
2021/03/15 07:39:00;;;;;;;54.93;33.98;;;;;;;10.80;53.68;99916.80;1804838;77;21115;-77
2021/03/15 07:41:29;;;;;;;42.45;26.15;;;;;;;10.75;53.38;99910.63;1773995;78;21124;-75
2021/03/15 07:43:56;;;;;;;41.73;24.12;;;;;;;10.69;53.12;99915.85;1782413;78;21199;-74
2021/03/15 07:46:28;;;;;;;41.23;23.77;;;;;;;10.61;52.96;99917.53;1804989;77;21185;-77
2021/03/15 07:48:58;;;;;;;73.37;43.28;;;;;;;10.52;52.72;99915.88;1801550;77;21104;-74
2021/03/15 07:51:32;;;;;;;61.37;36.08;;;;;;;10.41;52.71;99916.25;1777396;78;21137;-76
2021/03/15 07:54:07;;;;;;;76.62;43.33;;;;;;;10.34;52.74;99917.93;1784535;78;21230;-75
2021/03/15 07:56:49;;;;;;;63.90;36.23;;;;;;;10.23;52.95;99920.44;1789521;76;21495;-77
2021/03/15 07:59:19;;;;;;;50.65;28.73;;;;;;;10.16;53.08;99923.44;1797661;77;21482;-76
2021/03/15 08:01:47;;;;;;;35.80;20.68;;;;;;;10.09;53.28;99921.95;1806633;77;21799;-78
2021/03/15 08:04:14;;;;;;;53.78;27.77;;;;;;;10.10;53.37;99919.60;1762486;77;21671;-73
2021/03/15 08:06:41;;;;;;;;;;;;;;;10.12;53.37;99924.27;1787255;78;21219;-79
2021/03/15 08:09:08;;;;;;;60.30;34.53;;;;;;;10.09;53.40;99909.91;1721415;79;20348;-76
2021/03/15 08:11:35;;;;;;;59.20;32.20;;;;;;;10.07;53.55;99917.75;1768513;79;21184;-74
2021/03/15 08:14:03;;;;;;;58.08;32.23;;;;;;;10.07;53.59;99918.59;1802976;77;22592;-75
2021/03/15 08:16:42;;;;;;;53.78;30.62;;;;;;;10.07;53.50;99917.25;1775441;78;21198;-75
2021/03/15 08:19:14;;;;;;;52.27;28.73;;;;;;;10.06;53.50;99916.09;1786353;77;21133;-75
2021/03/15 08:21:42;;;;;;;51.40;28.38;;;;;;;10.01;53.54;99909.91;1759145;78;21144;-75
2021/03/15 08:24:11;;;;;;;51.70;31.60;;;;;;;9.98;53.60;99916.92;1759580;78;21702;-75
2021/03/15 08:26:40;;;;;;;46.35;27.45;;;;;;;10.00;53.37;99916.77;1808855;77;21145;-78
2021/03/15 08:29:07;;;;;;;40.38;25.20;;;;;;;9.96;53.33;99914.93;1812182;77;22181;-74
2021/03/15 08:31:38;;;;;;;45.55;27.32;;;;;;;9.94;53.23;99918.76;1814530;77;21396;-74
2021/03/15 08:34:05;;;;;;;41.10;24.98;;;;;;;9.88;53.19;99922.95;1791893;78;21139;-76
2021/03/15 08:36:48;;;;;;;37.67;22.75;;;;;;;9.85;53.16;99926.78;1789523;78;21659;-75
2021/03/15 08:39:40;;;;;;;36.30;22.60;;;;;;;9.87;53.19;99921.28;1871316;74;29298;-74
2021/03/15 08:42:22;;;;;;;45.95;27.60;;;;;;;9.80;53.20;99924.27;1805908;77;21128;-77
2021/03/15 08:44:52;;;;;;;41.83;25.97;;;;;;;9.79;53.32;99927.95;1774838;79;21136;-77
2021/03/15 08:47:51;;;;;;;44.33;25.45;;;;;;;9.78;53.41;99924.45;1817860;77;21164;-79
2021/03/15 08:50:54;;;;;;;38.60;21.48;;;;;;;9.80;53.49;99932.30;1781576;77;21147;-79
2021/03/15 08:53:51;;;;;;;38.58;23.25;;;;;;;9.83;53.43;99933.31;1818295;77;21104;-76
2021/03/15 08:56:37;;;;;;;40.48;24.72;;;;;;;9.79;53.55;99923.95;1772761;79;21113;-76
2021/03/15 08:59:06;;;;;;;43.48;23.60;;;;;;;9.82;53.61;99931.14;1808211;77;21082;-77
2021/03/15 09:01:54;;;;;;;38.40;23.05;;;;;;;9.88;53.48;99925.12;1823700;76;21140;-76
2021/03/15 09:04:41;;;;;;;38.58;22.70;;;;;;;9.95;53.44;99928.45;1824479;76;21103;-76
2021/03/15 09:07:31;;;;;;;42.30;23.85;;;;;;;9.98;53.31;99923.61;1808981;77;21096;-79
2021/03/15 09:10:28;;;;;;;36.65;20.90;;;;;;;10.03;53.22;99925.28;1776029;79;21113;-76
2021/03/15 09:13:20;;;;;;;30.90;20.57;;;;;;;10.08;53.01;99924.77;1819934;77;21112;-76
2021/03/15 09:15:53;;;;;;;40.95;24.77;;;;;;;10.10;52.86;99922.78;1791494;77;21115;-77
2021/03/15 09:18:44;;;;;;;40.98;23.57;;;;;;;10.10;52.88;99923.61;1815045;77;21765;-78
2021/03/15 09:21:29;;;;;;;40.78;23.35;;;;;;;10.12;52.72;99915.41;1814880;77;21127;-75
2021/03/15 09:23:59;;;;;;;40.38;24.47;;;;;;;10.14;52.67;99920.94;1816742;76;21081;-75
2021/03/15 09:26:32;;;;;;;47.62;27.17;;;;;;;10.14;52.64;99922.28;1806447;77;21181;-75
2021/03/15 09:28:59;;;;;;;40.58;23.67;;;;;;;10.18;52.63;99912.58;1819607;77;21118;-77
2021/03/15 09:31:26;;;;;;;;;;;;;;;10.21;52.69;99909.55;1775311;79;21135;-75
2021/03/15 09:33:55;;;;;;;40.10;23.45;;;;;;;10.24;52.62;99914.58;1821652;76;20286;-79
2021/03/15 09:36:30;;;;;;;40.03;24.85;;;;;;;10.25;52.59;99911.75;1796416;77;21081;-77
2021/03/15 09:38:57;;;;;;;47.00;27.30;;;;;;;10.26;52.60;99908.56;1819708;76;21123;-78
2021/03/15 09:41:25;;;;;;;50.78;28.83;;;;;;;10.28;52.71;99913.27;1823028;76;20939;-77
2021/03/15 09:43:57;;;;;;;48.28;28.50;;;;;;;10.31;52.77;99916.92;1820785;76;21097;-76
2021/03/15 09:46:30;;;;;;;43.52;27.27;;;;;;;10.31;52.79;99917.78;1784423;78;21101;-77
2021/03/15 09:48:58;;;;;;;42.55;22.67;;;;;;;10.36;52.78;99919.95;1782234;78;21092;-77
2021/03/15 09:51:30;;;;;;;35.28;19.25;;;;;;;10.36;52.71;99918.11;1765039;79;21140;-77
2021/03/15 09:54:05;;;;;;;39.35;24.43;;;;;;;10.36;52.64;99918.11;1820742;77;21136;-77
2021/03/15 09:56:38;;;;;;;55.78;32.08;;;;;;;10.33;52.57;99922.45;1798315;77;21101;-77
2021/03/15 09:59:11;;;;;;;61.42;33.48;;;;;;;10.28;52.56;99911.92;1792623;77;21125;-74
2021/03/15 10:01:50;;;;;;;61.58;34.05;;;;;;;10.26;52.66;99921.95;1754455;80;21117;-75
2021/03/15 10:04:40;;;;;;;47.95;27.00;;;;;;;10.26;52.58;99911.24;1847766;75;22898;-77
2021/03/15 10:07:25;;;;;;;47.70;27.10;;;;;;;10.18;52.60;99914.75;1798159;78;21183;-76
2021/03/15 10:10:14;;;;;;;37.48;20.43;;;;;;;10.14;52.61;99918.27;1801697;78;21212;-76
2021/03/15 10:13:03;;;;;;;37.03;22.40;;;;;;;10.09;52.69;99919.78;1794920;78;21606;-76
2021/03/15 10:15:41;;;;;;;35.00;20.92;;;;;;;10.07;52.70;99923.94;1771324;78;21965;-78
2021/03/15 10:18:21;;;;;;;30.70;18.55;;;;;;;10.02;52.76;99927.63;1776888;78;21100;-77
2021/03/15 10:20:50;;;;;;;37.23;22.70;;;;;;;9.97;52.77;99917.93;1803503;78;21658;-76
2021/03/15 10:23:21;;;;;;;40.78;21.77;;;;;;;9.88;52.94;99920.27;1774668;78;21156;-76
2021/03/15 10:25:57;;;;;;;47.13;25.85;;;;;;;9.87;53.02;99915.42;1806597;77;21146;-79
2021/03/15 10:28:30;;;;;;;;;;;;;;;9.85;53.05;99911.23;1806801;78;21133;-78
2021/03/15 10:30:59;;;;;;;62.88;36.90;;;;;;;9.85;53.16;99917.92;1804711;77;20216;-79
2021/03/15 10:33:29;;;;;;;71.02;37.23;;;;;;;9.86;53.23;99912.93;1748716;78;21128;-76
2021/03/15 10:35:57;;;;;;;68.22;36.83;;;;;;;9.88;53.17;99916.26;1803896;78;21017;-75
2021/03/15 10:38:26;;;;;;;45.58;26.12;;;;;;;9.90;53.30;99911.56;1765563;79;21182;-79
2021/03/15 10:41:02;;;;;;;45.95;25.45;;;;;;;9.91;53.22;99910.59;1767425;79;21744;-78
2021/03/15 10:43:30;;;;;;;40.88;23.15;;;;;;;9.91;53.26;99906.06;1765807;79;21104;-78
2021/03/15 10:46:22;;;;;;;36.17;20.40;;;;;;;9.93;53.32;99904.55;1728887;81;21108;-78
2021/03/15 10:48:50;;;;;;;44.40;26.10;;;;;;;9.95;53.38;99899.89;1751455;80;21851;-77
2021/03/15 10:51:18;;;;;;;43.70;25.32;;;;;;;9.97;53.42;99900.54;1747617;80;21148;-76
2021/03/15 10:53:53;;;;;;;49.80;29.25;;;;;;;10.02;53.60;99892.84;1764452;79;21141;-76
2021/03/15 10:56:33;;;;;;;43.38;25.43;;;;;;;10.07;53.63;99890.49;1731319;80;21153;-77
2021/03/15 10:59:06;;;;;;;40.25;22.58;;;;;;;10.10;53.61;99890.16;1763104;79;21129;-77
2021/03/15 11:01:36;;;;;;;34.15;20.02;;;;;;;10.12;53.67;99894.00;1761272;79;21109;-77
2021/03/15 11:04:10;;;;;;;30.95;18.98;;;;;;;10.12;53.63;99892.66;1732027;79;21132;-76
2021/03/15 11:06:47;;;;;;;31.12;18.80;;;;;;;10.14;53.63;99894.18;1766476;78;21137;-76
2021/03/15 11:09:23;;;;;;;31.23;19.30;;;;;;;10.18;53.64;99888.50;1765231;79;21133;-75
2021/03/15 11:11:55;;;;;;;35.33;21.65;;;;;;;10.23;53.61;99889.66;1764424;79;21129;-81
2021/03/15 11:14:29;;;;;;;35.38;21.25;;;;;;;10.28;53.55;99889.17;1740489;79;21129;-78
2021/03/15 11:17:02;;;;;;;48.42;30.37;;;;;;;10.30;53.49;99889.31;1728076;79;21120;-78
2021/03/15 11:19:37;;;;;;;48.68;30.75;;;;;;;10.30;53.44;99883.13;1729355;79;21200;-76
2021/03/15 11:22:07;;;;;;;55.30;33.42;;;;;;;10.28;53.52;99880.64;1740739;79;21135;-78
2021/03/15 11:24:37;;;;;;;41.37;24.10;;;;;;;10.24;53.44;99883.31;1754362;79;21132;-78
2021/03/15 11:27:15;;;;;;;35.78;22.17;;;;;;;10.21;53.50;99878.77;1766405;79;21127;-75
2021/03/15 11:29:48;;;;;;;31.50;19.60;;;;;;;10.19;53.60;99879.45;1737223;79;21187;-77
2021/03/15 11:32:23;;;;;;;36.00;19.10;;;;;;;10.18;53.59;99871.10;1740643;79;21136;-76
2021/03/15 11:34:53;;;;;;;37.58;21.33;;;;;;;10.17;53.81;99871.58;1721801;81;21173;-78
2021/03/15 11:37:32;;;;;;;32.05;20.32;;;;;;;10.14;53.75;99844.67;1715340;79;21197;-77
2021/03/15 11:40:01;;;;;;;32.58;19.37;;;;;;;10.12;53.77;99853.35;1765282;79;21632;-78
2021/03/15 11:42:34;;;;;;;31.97;19.45;;;;;;;10.06;53.74;99856.72;1736248;79;21166;-77
2021/03/15 11:45:06;;;;;;;33.10;20.72;;;;;;;10.07;53.82;99860.23;1763371;79;21168;-78
2021/03/15 11:47:34;;;;;;;30.37;19.32;;;;;;;10.06;53.83;99857.23;1773141;78;21159;-77